createdAt,value
2022-08-02T00:01:15.246Z,98891.3
2022-08-02T00:06:51.441Z,98889.8
2022-08-02T00:12:26.186Z,98884.7
2022-08-02T00:18:01.361Z,98883.2
2022-08-02T00:24:31.277Z,98878.6
2022-08-02T00:30:06.647Z,98878.7
2022-08-02T00:35:41.614Z,98875.8
2022-08-02T00:41:16.381Z,98878.1
2022-08-02T00:46:51.267Z,98878.8
2022-08-02T00:52:26.020Z,98879.5
2022-08-02T00:58:01.955Z,98882.7
2022-08-02T01:03:36.956Z,98882.9
2022-08-02T01:09:11.641Z,98876.4
2022-08-02T01:14:46.512Z,98870.9
2022-08-02T01:20:21.347Z,98868
2022-08-02T01:25:56.065Z,98862.5
2022-08-02T01:31:31.899Z,98860.3
2022-08-02T01:37:07.612Z,98854.5
2022-08-02T01:42:42.731Z,98851.9
2022-08-02T01:48:17.448Z,98847.4
2022-08-02T01:53:52.203Z,98843.7
2022-08-02T01:59:27.099Z,98844.6
2022-08-02T02:05:01.915Z,98850
2022-08-02T02:10:37.899Z,98849.8
2022-08-02T02:16:13.191Z,98849.5
2022-08-02T02:21:48.437Z,98843.5
2022-08-02T02:27:23.483Z,98834.9
2022-08-02T02:32:58.406Z,98839.8
2022-08-02T02:38:33.164Z,98840.6
2022-08-02T02:44:09.304Z,98843.5
2022-08-02T02:49:44.332Z,98840.2
2022-08-02T02:55:18.995Z,98841.3
2022-08-02T03:00:54.427Z,98841.1
2022-08-02T03:06:30.250Z,98836.5
2022-08-02T03:12:05.102Z,98831.2
2022-08-02T03:17:40.128Z,98823.2
2022-08-02T03:23:15.383Z,98814.2
2022-08-02T03:28:50.278Z,98817.4
2022-08-02T03:34:25.029Z,98811.1
2022-08-02T03:39:59.568Z,98811.9
2022-08-02T03:45:34.367Z,98810.6
2022-08-02T03:51:10.615Z,98807.9
2022-08-02T03:56:45.409Z,98811.5
2022-08-02T04:02:20.322Z,98809.5
2022-08-02T04:08:39.154Z,98805.3
2022-08-02T04:14:14.799Z,98798.7
2022-08-02T04:19:49.730Z,98794.6
2022-08-02T04:25:42.634Z,98795.7
2022-08-02T04:31:17.607Z,98796.2
2022-08-02T04:36:52.437Z,98798
2022-08-02T04:42:27.157Z,98796.2
2022-08-02T04:48:06.714Z,98797.7
2022-08-02T04:53:41.844Z,98796.1
2022-08-02T04:59:16.610Z,98800.1
2022-08-02T05:04:51.453Z,98804.8
2022-08-02T05:10:34.943Z,98806
2022-08-02T05:16:09.824Z,98809
2022-08-02T05:21:44.867Z,98808.6
2022-08-02T05:27:22.468Z,98815.2
2022-08-02T05:32:57.462Z,98813.4
2022-08-02T05:38:37.959Z,98813.7
2022-08-02T05:44:13.755Z,98819.2
2022-08-02T05:49:48.633Z,98813.1
2022-08-02T05:55:23.706Z,98812.3
2022-08-02T06:00:59.124Z,98815.5
2022-08-02T06:06:34.220Z,98814.8
2022-08-02T06:12:09.018Z,98810.8
2022-08-02T06:18:05.664Z,98806.8
2022-08-02T06:23:38.348Z,98805.4
2022-08-02T06:29:39.456Z,98797.7
2022-08-02T06:35:15.468Z,98797.8
2022-08-02T06:40:50.037Z,98801.3
2022-08-02T06:47:14.010Z,98803.8
2022-08-02T06:52:49.431Z,98805.7
2022-08-02T06:58:25.311Z,98805.5
2022-08-02T07:04:01.415Z,98810
2022-08-02T07:09:36.658Z,98805.3
2022-08-02T07:15:11.741Z,98805.9
2022-08-02T07:20:46.976Z,98804
2022-08-02T07:26:21.822Z,98811.2
2022-08-02T07:31:56.729Z,98811
2022-08-02T07:38:02.632Z,98810.7
2022-08-02T07:43:40.522Z,98810.4
2022-08-02T07:49:15.969Z,98806.5
2022-08-02T07:54:56.019Z,98803.3
2022-08-02T08:00:31.736Z,98810.2
2022-08-02T08:06:07.577Z,98810.3
2022-08-02T08:11:51.280Z,98805.8
2022-08-02T08:17:48.953Z,98797.5
2022-08-02T08:23:21.602Z,98794
2022-08-02T08:28:56.542Z,98788.9
2022-08-02T08:34:32.671Z,98780.8
2022-08-02T08:40:07.763Z,98778.5
2022-08-02T08:45:43.016Z,98773
2022-08-02T08:51:19.070Z,98774.2
2022-08-02T08:56:58.712Z,98770
2022-08-02T09:02:33.523Z,98767.5
2022-08-02T09:08:17.373Z,98764.4
2022-08-02T09:13:52.207Z,98761.1
2022-08-02T09:19:48.893Z,98751.1
2022-08-02T09:25:22.654Z,98752.4
2022-08-02T09:30:57.622Z,98749.3
2022-08-02T09:36:34.136Z,98748
2022-08-02T09:42:13.278Z,98744.9
2022-08-02T09:47:51.353Z,98741.6
2022-08-02T09:53:26.526Z,98738.2
2022-08-02T09:59:02.286Z,98734.8
2022-08-02T10:04:54.648Z,98729.7
2022-08-02T10:10:37.579Z,98728
2022-08-02T10:16:34.318Z,98730.1
2022-08-02T10:22:06.765Z,98728.4
2022-08-02T10:28:06.393Z,98723.9
2022-08-02T10:33:42.546Z,98719.5
2022-08-02T10:39:24.679Z,98711.8
2022-08-02T10:44:59.446Z,98711.6
2022-08-02T10:50:34.608Z,98711.7
2022-08-02T10:56:10.236Z,98700.6
2022-08-02T11:01:45.711Z,98697
2022-08-02T11:07:22.214Z,98686.8
2022-08-02T11:12:57.195Z,98683.5
2022-08-02T11:18:53.846Z,98672.7
2022-08-02T11:24:26.424Z,98664.8
2022-08-02T11:30:02.479Z,98656.5
2022-08-02T11:35:37.325Z,98651
2022-08-02T11:41:12.969Z,98643.3
2022-08-02T11:47:22.318Z,98636.7
2022-08-02T11:52:57.406Z,98627.8
2022-08-02T11:58:32.634Z,98623.2
2022-08-02T12:04:07.487Z,98615.2
2022-08-02T12:09:42.781Z,98609.5
2022-08-02T12:15:19.377Z,98599.2
2022-08-02T12:20:54.187Z,98589.6
2022-08-02T12:26:29.053Z,98590.6
2022-08-02T12:32:04.390Z,98578
2022-08-02T12:37:40.281Z,98578.2
2022-08-02T12:43:15.165Z,98563.9
2022-08-02T12:49:19.427Z,98562.9
2022-08-02T12:54:55.515Z,98547.7
2022-08-02T13:00:31.290Z,98545
2022-08-02T13:06:45.303Z,98545.7
2022-08-02T13:12:22.232Z,98540.6
2022-08-02T13:17:57.470Z,98535
2022-08-02T13:23:55.817Z,98539.2
2022-08-02T13:29:30.823Z,98533
2022-08-02T13:35:18.735Z,98524.4
2022-08-02T13:41:05.589Z,98523.7
2022-08-02T13:46:46.571Z,98514.4
2022-08-02T13:52:21.800Z,98513
2022-08-02T13:57:56.936Z,98519.4
2022-08-02T14:04:10.143Z,98516.3
2022-08-02T14:09:45.564Z,98515.7
2022-08-02T14:15:20.588Z,98510.1
2022-08-02T14:20:55.699Z,98508.3
2022-08-02T14:26:30.634Z,98498.2
2022-08-02T14:32:06.464Z,98494.9
2022-08-02T14:37:41.488Z,98494.6
2022-08-02T14:43:20.116Z,98489.4
2022-08-02T14:48:55.442Z,98482.7
2022-08-02T14:54:31.885Z,98474.8
2022-08-02T15:00:07.039Z,98470.1
2022-08-02T15:05:42.765Z,98463.3
2022-08-02T15:11:17.986Z,98460.2
2022-08-02T15:16:59.522Z,98460.1
2022-08-02T15:22:35.151Z,98453.1
2022-08-02T15:28:11.895Z,98454.7
2022-08-02T15:33:46.868Z,98455.2
2022-08-02T15:39:21.772Z,98450
2022-08-02T15:44:56.597Z,98444.3
2022-08-02T15:50:31.512Z,98448.3
2022-08-02T15:56:13.637Z,98444.7
2022-08-02T16:01:58.764Z,98436.7
2022-08-02T16:07:41.463Z,98431.2
2022-08-02T16:13:16.703Z,98425
2022-08-02T16:18:51.855Z,98417.7
2022-08-02T16:24:26.748Z,98411.6
2022-08-02T16:30:01.880Z,98409.5
2022-08-02T16:35:36.994Z,98408.8
2022-08-02T16:41:22.455Z,98403.9
2022-08-02T16:47:13.066Z,98398.8
2022-08-02T16:52:52.202Z,98388.4
2022-08-02T16:58:28.031Z,98384.5
2022-08-02T17:04:06.410Z,98383.7
2022-08-02T17:10:09.900Z,98379.9
2022-08-02T17:16:26.525Z,98373.6
2022-08-02T17:22:02.390Z,98372.8
2022-08-02T17:27:37.714Z,98372.5
2022-08-02T17:33:14.412Z,98367.2
2022-08-02T17:38:52.345Z,98371.7
2022-08-02T17:44:39.002Z,98367.3
2022-08-02T17:50:15.461Z,98363.8
2022-08-02T17:55:51.639Z,98361.6
2022-08-02T18:01:26.566Z,98362.2
2022-08-02T18:07:10.706Z,98358.6
2022-08-02T18:12:56.479Z,98352.3
2022-08-02T18:18:33.171Z,98354.2
2022-08-02T18:24:11.405Z,98345.5
2022-08-02T18:30:04.282Z,98347.5
2022-08-02T18:35:40.295Z,98342
2022-08-02T18:41:15.240Z,98341
2022-08-02T18:46:55.539Z,98339.1
2022-08-02T18:52:34.075Z,98341.9
2022-08-02T18:58:20.911Z,98339.7
2022-08-02T19:03:58.533Z,98337
2022-08-02T19:09:33.459Z,98339
2022-08-02T19:15:08.753Z,98341.6
2022-08-02T19:20:53.770Z,98335.8
2022-08-02T23:04:49.236Z,98361.8
2022-08-02T23:10:23.650Z,98371.7
2022-08-02T23:15:58.357Z,98366.7
2022-08-02T23:22:03.816Z,98369.1
2022-08-02T23:27:38.723Z,98371.8
2022-08-02T23:33:25.693Z,98365.2
2022-08-02T23:39:00.738Z,98364.7
2022-08-02T23:44:35.513Z,98361.5
2022-08-02T23:50:11.416Z,98367.2
2022-08-02T23:55:46.061Z,98369.4
